createdAt,value
2023-05-06T00:02:50.745Z,12.70
2023-05-06T00:05:44.701Z,12.60
2023-05-06T00:08:38.722Z,12.50
2023-05-06T00:11:32.714Z,12.40
2023-05-06T00:14:26.710Z,12.30
2023-05-06T00:17:20.692Z,12.30
2023-05-06T00:20:16.935Z,12.20
2023-05-06T00:23:10.758Z,12.20
2023-05-06T00:26:04.714Z,12.10
2023-05-06T00:28:51.768Z,12.10
2023-05-06T00:31:45.785Z,12.00
2023-05-06T00:34:33.138Z,12.00
2023-05-06T00:37:26.855Z,12.00
2023-05-06T00:40:20.841Z,11.90
2023-05-06T00:43:08.027Z,11.90
2023-05-06T00:46:01.954Z,11.90
2023-05-06T00:48:49.121Z,11.90
2023-05-06T00:51:43.771Z,11.80
2023-05-06T00:54:31.008Z,11.80
2023-05-06T00:57:24.780Z,11.80
2023-05-06T01:00:18.883Z,11.80
2023-05-06T01:03:06.214Z,11.80
2023-05-06T01:06:11.808Z,11.70
2023-05-06T01:09:26.758Z,11.70
2023-05-06T01:12:30.829Z,11.70
2023-05-06T01:15:28.338Z,11.70
2023-05-06T01:18:27.882Z,11.60
2023-05-06T01:21:23.866Z,11.60
2023-05-06T01:24:17.791Z,11.60
2023-05-06T01:27:05.153Z,11.60
2023-05-06T01:29:58.779Z,11.50
2023-05-06T01:33:11.841Z,11.50
2023-05-06T01:36:21.992Z,11.50
2023-05-06T01:39:29.842Z,11.50
2023-05-06T01:42:17.951Z,11.50
2023-05-06T01:45:13.868Z,11.50
2023-05-06T01:48:07.918Z,11.40
2023-05-06T01:50:55.403Z,11.50
2023-05-06T01:53:48.877Z,11.40
2023-05-06T01:56:36.296Z,11.40
2023-05-06T01:59:29.962Z,11.30
2023-05-06T02:02:17.361Z,11.40
2023-05-06T02:05:11.098Z,11.30
2023-05-06T02:07:58.491Z,11.30
2023-05-06T02:10:51.911Z,11.30
2023-05-06T02:13:45.921Z,11.30
2023-05-06T02:16:39.988Z,11.30
2023-05-06T02:19:33.905Z,11.30
2023-05-06T02:22:21.128Z,11.30
2023-05-06T02:25:14.919Z,11.30
2023-05-06T02:28:02.021Z,11.30
2023-05-06T02:30:55.939Z,11.20
2023-05-06T02:33:43.443Z,11.20
2023-05-06T02:36:36.955Z,11.20
2023-05-06T02:39:24.370Z,11.20
2023-05-06T02:42:21.036Z,11.20
2023-05-06T02:45:09.075Z,11.10
2023-05-06T02:48:02.917Z,11.20
2023-05-06T02:50:58.051Z,11.10
2023-05-06T02:53:46.411Z,11.20
2023-05-06T02:56:39.962Z,11.10
2023-05-06T02:59:27.037Z,11.10
2023-05-06T03:02:20.959Z,11.10
2023-05-06T03:05:08.737Z,11.10
2023-05-06T03:08:02.984Z,11.00
2023-05-06T03:10:50.834Z,11.00
2023-05-06T03:13:43.991Z,11.00
2023-05-06T03:16:31.165Z,11.00
2023-05-06T03:19:24.950Z,11.00
2023-05-06T03:22:12.020Z,11.00
2023-05-06T03:25:05.993Z,11.00
2023-05-06T03:27:53.068Z,10.90
2023-05-06T03:30:47.020Z,10.90
2023-05-06T03:33:34.086Z,10.80
2023-05-06T03:36:30.030Z,10.90
2023-05-06T03:39:17.146Z,10.90
2023-05-06T03:42:11.032Z,10.90
2023-05-06T03:45:05.057Z,10.90
2023-05-06T03:47:52.317Z,10.90
2023-05-06T03:50:46.015Z,10.80
2023-05-06T03:53:33.182Z,10.90
2023-05-06T03:56:28.077Z,10.90
2023-05-06T03:59:15.274Z,10.90
2023-05-06T04:02:09.109Z,10.90
2023-05-06T04:05:03.086Z,10.90
2023-05-06T04:07:50.411Z,10.90
2023-05-06T04:10:48.071Z,10.90
2023-05-06T04:13:35.398Z,10.90
2023-05-06T04:16:29.109Z,10.90
2023-05-06T04:19:17.824Z,10.90
2023-05-06T04:22:11.120Z,10.90
2023-05-06T04:25:07.129Z,10.90
2023-05-06T04:28:01.112Z,10.90
2023-05-06T04:30:55.111Z,11.00
2023-05-06T04:33:49.087Z,11.00
2023-05-06T04:36:36.531Z,11.10
2023-05-06T04:39:31.123Z,11.10
2023-05-06T04:42:25.145Z,11.20
2023-05-06T04:45:12.437Z,11.30
2023-05-06T04:48:06.206Z,11.40
2023-05-06T04:51:00.159Z,11.50
2023-05-06T04:53:47.256Z,11.60
2023-05-06T04:56:41.146Z,11.70
2023-05-06T04:59:35.160Z,11.70
2023-05-06T05:02:29.224Z,11.80
2023-05-06T05:05:16.573Z,11.90
2023-05-06T05:08:10.271Z,11.90
2023-05-06T05:10:57.334Z,12.00
2023-05-06T05:13:51.239Z,12.10
2023-05-06T05:16:38.459Z,12.20
2023-05-06T05:19:32.192Z,12.20
2023-05-06T05:22:26.184Z,12.30
2023-05-06T05:25:13.617Z,12.40
2023-05-06T05:28:07.216Z,12.40
2023-05-06T05:30:54.528Z,12.40
2023-05-06T05:33:48.291Z,12.40
2023-05-06T05:36:42.166Z,12.50
2023-05-06T05:39:29.244Z,12.50
2023-05-06T05:42:23.199Z,12.60
2023-05-06T05:45:10.977Z,12.60
2023-05-06T05:48:05.281Z,12.60
2023-05-06T05:51:00.419Z,12.70
2023-05-06T05:54:01.338Z,12.70
2023-05-06T05:56:48.565Z,12.70
2023-05-06T05:59:44.296Z,12.80
2023-05-06T06:02:38.276Z,12.80
2023-05-06T06:05:32.269Z,12.90
2023-05-06T06:08:26.277Z,13.00
2023-05-06T06:11:20.248Z,13.00
2023-05-06T06:14:07.393Z,13.00
2023-05-06T06:17:01.379Z,13.10
2023-05-06T06:19:48.515Z,13.00
2023-05-06T06:22:42.399Z,13.00
2023-05-06T06:25:36.297Z,13.00
2023-05-06T06:28:23.476Z,13.10
2023-05-06T06:31:17.346Z,13.20
2023-05-06T06:34:17.447Z,13.30
2023-05-06T06:37:11.331Z,13.40
2023-05-06T06:40:05.279Z,13.50
2023-05-06T06:42:59.355Z,13.50
2023-05-06T06:45:56.427Z,13.60
2023-05-06T06:48:43.647Z,13.60
2023-05-06T06:51:38.387Z,13.60
2023-05-06T06:54:32.319Z,13.70
2023-05-06T06:57:26.319Z,13.80
2023-05-06T07:00:20.339Z,13.90
2023-05-06T07:03:07.539Z,14.10
2023-05-06T07:06:01.324Z,14.20
2023-05-06T07:08:48.543Z,14.40
2023-05-06T07:11:42.356Z,14.50
2023-05-06T07:14:36.348Z,14.60
2023-05-06T07:17:30.418Z,14.70
2023-05-06T07:20:24.344Z,14.70
2023-05-06T07:23:18.417Z,14.90
2023-05-06T07:26:05.826Z,15.10
2023-05-06T07:28:59.443Z,15.20
2023-05-06T07:31:53.383Z,15.50
2023-05-06T07:34:47.398Z,15.60
2023-05-06T07:37:41.409Z,15.80
2023-05-06T07:40:35.364Z,15.90
2023-05-06T07:43:29.450Z,16.00
2023-05-06T07:46:16.950Z,16.00
2023-05-06T07:49:10.426Z,16.20
2023-05-06T07:51:57.552Z,16.30
2023-05-06T07:54:51.475Z,16.40
2023-05-06T07:57:45.410Z,16.50
2023-05-06T08:00:32.473Z,16.60
2023-05-06T08:03:26.759Z,16.60
2023-05-06T08:06:14.171Z,16.70
2023-05-06T08:09:08.483Z,16.70
2023-05-06T08:11:56.274Z,16.80
2023-05-06T08:14:49.440Z,16.70
2023-05-06T08:17:38.804Z,16.80
2023-05-06T08:20:32.499Z,17.00
2023-05-06T08:23:20.109Z,17.20
2023-05-06T08:26:13.478Z,17.10
2023-05-06T08:29:07.491Z,17.10
2023-05-06T08:31:54.784Z,17.10
2023-05-06T08:34:51.679Z,17.20
2023-05-06T08:37:38.859Z,17.30
2023-05-06T08:40:35.579Z,17.50
2023-05-06T08:43:27.534Z,17.60
2023-05-06T08:46:21.687Z,17.70
2023-05-06T08:49:16.563Z,17.70
2023-05-06T08:52:12.493Z,17.80
2023-05-06T08:55:11.836Z,17.80
2023-05-06T08:58:06.531Z,18.00
2023-05-06T09:00:53.719Z,18.20
2023-05-06T09:03:47.564Z,18.30
2023-05-06T09:06:41.583Z,18.40
2023-05-06T09:09:29.214Z,18.50
2023-05-06T09:12:22.563Z,18.50
2023-05-06T09:15:10.489Z,18.60
2023-05-06T09:18:04.648Z,18.80
2023-05-06T09:21:00.147Z,19.00
2023-05-06T09:23:54.630Z,19.10
2023-05-06T09:26:43.632Z,19.30
2023-05-06T09:29:37.617Z,19.40
2023-05-06T09:32:25.236Z,19.40
2023-05-06T09:35:18.627Z,19.40
2023-05-06T09:38:07.302Z,19.30
2023-05-06T09:41:01.608Z,19.30
2023-05-06T09:43:55.583Z,19.40
2023-05-06T09:46:42.928Z,19.50
2023-05-06T09:49:36.588Z,19.60
2023-05-06T09:52:23.885Z,19.70
2023-05-06T09:55:18.618Z,19.70
2023-05-06T09:58:13.686Z,19.80
2023-05-06T10:01:08.190Z,20.20
2023-05-06T10:04:03.825Z,20.40
2023-05-06T10:06:54.862Z,20.50
2023-05-06T10:09:48.607Z,20.70
2023-05-06T10:12:38.912Z,20.80
2023-05-06T10:15:33.672Z,20.90
2023-05-06T10:18:22.068Z,20.90
2023-05-06T10:21:23.655Z,20.80
2023-05-06T10:24:16.386Z,20.70
2023-05-06T10:27:12.721Z,20.70
2023-05-06T10:30:00.933Z,20.70
2023-05-06T10:32:56.780Z,20.80
2023-05-06T10:36:01.689Z,20.90
2023-05-06T10:38:57.263Z,21.10
2023-05-06T10:41:50.772Z,21.30
2023-05-06T10:44:56.526Z,21.40
2023-05-06T10:48:04.686Z,21.60
2023-05-06T10:51:05.702Z,21.60
2023-05-06T10:53:57.171Z,21.40
2023-05-06T10:56:56.724Z,21.50
2023-05-06T10:59:46.871Z,21.80
2023-05-06T11:02:40.757Z,21.90
2023-05-06T11:05:28.059Z,21.80
2023-05-06T11:08:22.693Z,22.00
2023-05-06T11:11:54.751Z,22.10
2023-05-06T11:14:41.896Z,22.10
2023-05-06T11:17:38.843Z,22.20
2023-05-06T11:20:26.860Z,22.30
2023-05-06T11:23:20.790Z,22.30
2023-05-06T11:26:09.202Z,22.50
2023-05-06T11:29:08.775Z,22.70
2023-05-06T11:31:55.927Z,22.70
2023-05-06T11:34:49.732Z,22.50
2023-05-06T11:37:43.801Z,22.60
2023-05-06T11:40:37.771Z,22.70
2023-05-06T11:43:24.999Z,22.80
2023-05-06T11:46:18.898Z,23.10
2023-05-06T11:49:12.774Z,23.20
2023-05-06T11:52:00.002Z,23.40
2023-05-06T11:54:53.800Z,23.40
2023-05-06T11:57:44.724Z,23.40
2023-05-06T12:00:38.843Z,23.00
2023-05-06T12:03:28.681Z,22.70
2023-05-06T12:06:24.521Z,22.70
2023-05-06T12:09:19.860Z,23.00
2023-05-06T12:12:14.819Z,23.30
2023-05-06T12:15:10.864Z,23.60
2023-05-06T12:17:58.320Z,23.80
2023-05-06T12:20:51.890Z,23.80
2023-05-06T12:23:54.240Z,23.60
2023-05-06T12:26:54.809Z,23.40
2023-05-06T12:29:52.909Z,23.20
2023-05-06T12:33:05.903Z,23.00
2023-05-06T12:35:54.758Z,22.80
2023-05-06T12:39:07.857Z,22.70
2023-05-06T12:41:54.939Z,22.60
2023-05-06T12:44:48.902Z,22.40
2023-05-06T12:47:36.125Z,22.40
2023-05-06T12:50:41.904Z,22.30
2023-05-06T12:53:40.930Z,22.60
2023-05-06T12:56:28.034Z,23.20
2023-05-06T12:59:21.917Z,23.50
2023-05-06T13:02:15.983Z,23.60
2023-05-06T13:05:10.113Z,23.30
2023-05-06T13:08:03.938Z,23.00
2023-05-06T13:10:51.080Z,22.70
2023-05-06T13:13:44.915Z,22.40
2023-05-06T13:16:32.410Z,22.20
2023-05-06T13:22:18.728Z,22.10
2023-05-06T13:25:12.940Z,22.20
2023-05-06T13:28:00.000Z,22.40
2023-05-06T13:30:54.020Z,22.50
2023-05-06T13:33:41.127Z,22.40
2023-05-06T13:36:35.149Z,22.40
2023-05-06T13:39:23.388Z,22.20
2023-05-06T13:42:16.971Z,22.10
2023-05-06T13:45:10.986Z,22.00
2023-05-06T13:47:58.081Z,21.90
2023-05-06T13:50:52.958Z,22.10
2023-05-06T13:53:40.093Z,22.20
2023-05-06T13:56:34.018Z,22.70
2023-05-06T13:59:21.165Z,23.40
2023-05-06T14:02:15.201Z,24.10
2023-05-06T14:05:02.927Z,24.30
2023-05-06T14:07:57.310Z,24.10
2023-05-06T14:10:44.471Z,24.20
2023-05-06T14:13:40.022Z,24.10
2023-05-06T14:16:27.175Z,24.00
2023-05-06T14:19:21.342Z,24.00
2023-05-06T14:22:15.031Z,24.20
2023-05-06T14:25:02.168Z,24.50
2023-05-06T14:27:56.059Z,24.30
2023-05-06T14:30:44.616Z,23.90
2023-05-06T14:33:38.087Z,23.40
2023-05-06T14:36:25.302Z,23.30
2023-05-06T14:39:20.182Z,23.20
2023-05-06T14:42:07.235Z,23.30
2023-05-06T14:45:01.096Z,23.30
2023-05-06T14:47:48.307Z,23.30
2023-05-06T14:50:42.083Z,23.30
2023-05-06T14:53:37.127Z,23.20
2023-05-06T14:56:31.067Z,23.00
2023-05-06T14:59:25.181Z,22.90
2023-05-06T15:02:12.259Z,22.90
2023-05-06T15:05:06.136Z,22.70
2023-05-06T15:07:53.289Z,22.60
2023-05-06T15:10:48.240Z,22.50
2023-05-06T15:13:42.174Z,22.50
2023-05-06T15:16:36.217Z,22.40
2023-05-06T15:19:30.113Z,22.40
2023-05-06T15:22:24.112Z,22.60
2023-05-06T15:25:19.367Z,22.60
2023-05-06T15:28:21.804Z,22.50
2023-05-06T15:31:10.156Z,22.30
2023-05-06T15:34:04.143Z,22.30
2023-05-06T15:37:00.153Z,22.60
2023-05-06T15:39:47.911Z,22.60
2023-05-06T15:42:44.173Z,22.60
2023-05-06T15:45:31.408Z,22.50
2023-05-06T15:48:25.180Z,22.60
2023-05-06T15:51:12.242Z,22.70
2023-05-06T15:54:06.197Z,22.80
2023-05-06T15:56:53.304Z,22.70
2023-05-06T15:59:47.201Z,22.50
2023-05-06T16:02:35.060Z,22.30
2023-05-06T16:05:29.182Z,22.10
2023-05-06T16:08:23.313Z,21.90
2023-05-06T16:11:10.467Z,21.80
2023-05-06T16:14:04.243Z,21.50
2023-05-06T16:16:51.408Z,21.40
2023-05-06T16:19:45.583Z,21.40
2023-05-06T16:22:32.673Z,21.30
2023-05-06T16:25:26.230Z,21.30
2023-05-06T16:28:13.388Z,21.30
2023-05-06T16:31:09.269Z,21.40
2023-05-06T16:34:03.305Z,21.30
2023-05-06T16:36:50.702Z,21.20
2023-05-06T16:39:44.223Z,21.10
2023-05-06T16:42:31.252Z,21.00
2023-05-06T16:45:25.299Z,20.90
2023-05-06T16:48:16.321Z,20.90
2023-05-06T16:51:10.264Z,20.80
2023-05-06T16:53:57.334Z,20.70
2023-05-06T16:56:52.532Z,20.60
2023-05-06T16:59:46.322Z,20.50
2023-05-06T17:02:33.676Z,20.50
2023-05-06T17:05:27.309Z,20.40
2023-05-06T17:08:22.078Z,20.40
2023-05-06T17:11:18.432Z,20.40
2023-05-06T17:14:18.333Z,20.30
2023-05-06T17:17:12.328Z,20.30
2023-05-06T17:19:59.456Z,20.30
2023-05-06T17:22:53.291Z,20.20
2023-05-06T17:25:40.522Z,19.90
2023-05-06T17:28:34.451Z,19.30
2023-05-06T17:31:28.534Z,18.70
2023-05-06T17:37:20.408Z,17.30
2023-05-06T17:40:08.199Z,16.70
2023-05-06T17:43:02.440Z,16.30
2023-05-06T17:45:49.560Z,15.90
2023-05-06T17:48:43.453Z,15.70
2023-05-06T17:51:37.404Z,15.50
2023-05-06T17:54:31.419Z,15.50
2023-05-06T17:57:18.571Z,15.40
2023-05-06T18:00:14.436Z,15.30
2023-05-06T18:03:08.482Z,15.20
2023-05-06T18:05:55.885Z,15.20
2023-05-06T18:08:51.410Z,15.10
2023-05-06T18:11:39.205Z,15.00
2023-05-06T18:14:32.396Z,15.00
2023-05-06T18:17:19.500Z,14.90
2023-05-06T18:20:14.520Z,14.90
2023-05-06T18:23:09.356Z,14.90
2023-05-06T18:26:03.397Z,15.00
2023-05-06T18:28:50.721Z,15.00
2023-05-06T18:31:44.510Z,15.00
2023-05-06T18:34:31.605Z,15.00
2023-05-06T18:37:25.439Z,15.00
2023-05-06T18:40:21.450Z,15.00
2023-05-06T18:43:08.643Z,15.00
2023-05-06T18:46:02.534Z,15.10
2023-05-06T18:48:49.990Z,15.10
2023-05-06T18:51:43.573Z,15.20
2023-05-06T18:54:30.732Z,15.20
2023-05-06T18:57:26.576Z,15.20
2023-05-06T19:00:13.984Z,15.20
2023-05-06T19:03:07.526Z,15.20
2023-05-06T19:05:54.656Z,15.20
2023-05-06T19:08:48.470Z,15.20
2023-05-06T19:11:42.515Z,15.20
2023-05-06T19:14:29.766Z,15.30
2023-05-06T19:17:23.615Z,15.30
2023-05-06T19:20:11.348Z,15.30
2023-05-06T19:23:04.583Z,15.30
2023-05-06T19:25:51.742Z,15.30
2023-05-06T19:28:46.519Z,15.30
2023-05-06T19:31:34.872Z,15.30
2023-05-06T19:34:28.523Z,15.30
2023-05-06T19:37:22.515Z,15.40
2023-05-06T19:40:10.116Z,15.40
2023-05-06T19:43:10.591Z,15.40
2023-05-06T19:45:57.753Z,15.40
2023-05-06T19:48:52.548Z,15.40
2023-05-06T19:51:39.663Z,15.40
2023-05-06T19:54:33.582Z,15.40
2023-05-06T19:57:20.863Z,15.30
2023-05-06T20:00:16.591Z,15.30
2023-05-06T20:03:04.132Z,15.20
2023-05-06T20:05:57.548Z,15.30
2023-05-06T20:08:51.594Z,15.20
2023-05-06T20:11:38.733Z,15.30
2023-05-06T20:14:32.555Z,15.30
2023-05-06T20:17:19.748Z,15.30
2023-05-06T20:20:17.617Z,15.30
2023-05-06T20:23:04.795Z,15.30
2023-05-06T20:25:58.618Z,15.30
2023-05-06T20:28:45.789Z,15.20
2023-05-06T20:31:39.651Z,15.30
2023-05-06T20:34:27.016Z,15.30
2023-05-06T20:37:20.624Z,15.20
2023-05-06T20:40:14.631Z,15.30
2023-05-06T20:43:04.635Z,15.30
2023-05-06T20:45:58.872Z,15.30
2023-05-06T20:48:46.441Z,15.40
2023-05-06T20:51:40.640Z,15.40
2023-05-06T20:54:27.897Z,15.40
2023-05-06T20:57:22.607Z,15.40
2023-05-06T21:00:11.192Z,15.40
2023-05-06T21:03:04.696Z,15.30
2023-05-06T21:05:58.657Z,15.30
2023-05-06T21:08:46.838Z,15.30
2023-05-06T21:11:40.640Z,15.30
2023-05-06T21:14:27.867Z,15.40
2023-05-06T21:17:21.719Z,15.40
2023-05-06T21:20:09.385Z,15.40
2023-05-06T21:23:03.680Z,15.40
2023-05-06T21:25:50.889Z,15.40
2023-05-06T21:28:44.724Z,15.40
2023-05-06T21:31:31.944Z,15.30
2023-05-06T21:34:25.665Z,15.20
2023-05-06T21:37:12.826Z,15.20
2023-05-06T21:40:08.807Z,15.10
2023-05-06T21:43:03.707Z,15.00
2023-05-06T21:45:50.764Z,14.90
2023-05-06T21:48:44.759Z,14.90
2023-05-06T21:51:33.588Z,14.90
2023-05-06T21:54:27.784Z,14.90
2023-05-06T21:57:14.884Z,14.90
2023-05-06T22:00:17.850Z,14.90
2023-05-06T22:03:11.861Z,14.90
2023-05-06T22:05:59.204Z,14.90
2023-05-06T22:08:52.755Z,14.90
2023-05-06T22:11:39.861Z,15.00
2023-05-06T22:14:41.026Z,15.00
2023-05-06T22:17:36.764Z,15.00
2023-05-06T22:20:30.794Z,15.10
2023-05-06T22:23:21.018Z,15.00
2023-05-06T22:26:14.784Z,15.10
2023-05-06T22:29:08.923Z,15.10
2023-05-06T22:31:56.061Z,15.10
2023-05-06T22:34:49.844Z,15.10
2023-05-06T22:37:36.904Z,15.10
2023-05-06T22:40:30.841Z,15.10
2023-05-06T22:43:17.975Z,15.10
2023-05-06T22:46:11.846Z,15.10
2023-05-06T22:49:00.158Z,15.10
2023-05-06T22:51:53.847Z,15.10
2023-05-06T22:54:47.882Z,15.10
2023-05-06T22:57:41.841Z,15.10
2023-05-06T23:00:35.821Z,15.10
2023-05-06T23:03:23.209Z,15.10
2023-05-06T23:06:17.839Z,15.10
2023-05-06T23:09:06.618Z,15.00
2023-05-06T23:12:00.010Z,15.00
2023-05-06T23:14:47.115Z,15.00
2023-05-06T23:17:41.025Z,15.00
2023-05-06T23:20:28.246Z,14.90
2023-05-06T23:23:21.863Z,14.90
2023-05-06T23:26:15.865Z,14.90
2023-05-06T23:29:03.001Z,14.90
2023-05-06T23:31:56.943Z,14.80
2023-05-06T23:34:44.148Z,14.70
2023-05-06T23:37:38.271Z,14.60
2023-05-06T23:40:25.350Z,14.60
2023-05-06T23:43:18.911Z,14.50
2023-05-06T23:46:06.050Z,14.50
2023-05-06T23:48:59.911Z,14.50
2023-05-06T23:51:46.961Z,14.50
2023-05-06T23:54:40.968Z,14.50
2023-05-06T23:57:28.103Z,14.50
